Time;durP1;ratioP1;P1;durP2;ratioP2;P2;SDS_P1;SDS_P2;PMS_P1;PMS_P2;Temp;Humidity;BMP_temperature;BMP_pressure;BME280_temperature;BME280_humidity;BME280_pressure;Samples;Min_cycle;Max_cycle;Signal;HPM_P1;HPM_P2
2023/08/18 00:00:00;;;;;;;4.70;2.65;;;22.70;99.90;;;;;;6271003;22;20007;-74
2023/08/18 00:02:46;;;;;;;4.32;2.95;;;22.80;99.90;;;;;;6249636;22;20091;-74
2023/08/18 00:05:32;;;;;;;3.92;2.80;;;22.70;99.90;;;;;;6272581;22;20097;-74
2023/08/18 00:08:18;;;;;;;4.60;2.67;;;22.80;99.90;;;;;;6272841;22;20008;-74
2023/08/18 00:11:05;;;;;;;4.20;2.83;;;22.70;99.90;;;;;;6272994;22;20012;-75
2023/08/18 00:13:51;;;;;;;4.40;3.00;;;22.70;99.90;;;;;;6271992;22;20090;-75
2023/08/18 00:16:39;;;;;;;5.82;3.30;;;22.70;99.90;;;;;;6272953;22;20333;-75
2023/08/18 00:19:25;;;;;;;4.28;2.88;;;22.70;99.90;;;;;;6273295;22;20496;-75
2023/08/18 00:22:11;;;;;;;4.28;2.90;;;22.70;99.90;;;;;;6273827;22;20012;-75
2023/08/18 00:24:57;;;;;;;4.90;2.97;;;22.70;99.90;;;;;;6270569;22;20023;-75
2023/08/18 00:27:43;;;;;;;4.50;3.10;;;22.70;99.90;;;;;;6272490;22;20322;-76
2023/08/18 00:30:29;;;;;;;4.40;3.05;;;22.70;99.90;;;;;;6271999;22;20339;-75
2023/08/18 00:33:15;;;;;;;3.90;2.65;;;22.70;99.90;;;;;;6272756;22;20822;-75
2023/08/18 00:36:01;;;;;;;4.75;3.08;;;22.60;99.90;;;;;;6271718;22;20007;-75
2023/08/18 00:38:47;;;;;;;4.20;2.50;;;22.60;99.90;;;;;;6272481;22;20011;-75
2023/08/18 00:41:33;;;;;;;5.82;3.53;;;22.60;99.90;;;;;;6273896;22;20062;-76
2023/08/18 00:44:19;;;;;;;4.10;2.65;;;22.60;99.90;;;;;;6272056;22;20023;-75
2023/08/18 00:47:05;;;;;;;4.18;3.08;;;22.60;99.90;;;;;;6273616;22;20007;-75
2023/08/18 00:49:53;;;;;;;6.15;3.35;;;22.70;99.90;;;;;;6272675;22;20012;-76
2023/08/18 00:52:40;;;;;;;5.05;3.05;;;22.60;99.90;;;;;;6273054;22;20338;-76
2023/08/18 00:55:28;;;;;;;5.68;2.90;;;22.60;99.90;;;;;;6250605;22;20012;-75
2023/08/18 00:58:14;;;;;;;4.88;3.17;;;22.60;99.90;;;;;;6273229;22;20011;-77
2023/08/18 01:01:00;;;;;;;4.82;3.25;;;22.60;99.90;;;;;;6292759;22;20004;-77
2023/08/18 01:03:46;;;;;;;4.53;3.22;;;22.60;99.90;;;;;;6279609;22;20007;-78
2023/08/18 01:06:32;;;;;;;4.80;3.65;;;22.60;99.90;;;;;;6280866;22;20042;-79
2023/08/18 01:09:18;;;;;;;6.20;3.42;;;22.60;99.90;;;;;;6276464;22;20383;-80
2023/08/18 01:12:23;;;;;;;5.80;3.10;;;22.60;99.90;;;;;;6271694;22;20018;-79
2023/08/18 01:15:15;;;;;;;4.68;2.97;;;22.60;99.90;;;;;;6270822;22;20028;-73
2023/08/18 01:18:03;;;;;;;6.18;3.38;;;22.60;99.90;;;;;;6271022;22;20438;-73
2023/08/18 01:20:50;;;;;;;5.10;3.78;;;22.60;99.90;;;;;;6271009;22;20011;-73
2023/08/18 01:23:40;;;;;;;5.53;4.20;;;22.60;99.90;;;;;;6246601;22;20460;-74
2023/08/18 01:26:26;;;;;;;8.98;4.07;;;22.60;99.90;;;;;;6271025;22;20016;-79
2023/08/18 01:29:12;;;;;;;5.07;4.18;;;22.60;99.90;;;;;;6271838;22;20086;-78
2023/08/18 01:32:01;;;;;;;6.07;4.15;;;22.60;99.90;;;;;;6249672;22;20008;-77
2023/08/18 01:34:49;;;;;;;6.80;4.28;;;22.60;99.90;;;;;;6269987;22;20441;-77
2023/08/18 01:37:36;;;;;;;10.30;5.05;;;22.70;99.90;;;;;;6272260;22;20042;-78
2023/08/18 01:40:26;;;;;;;5.72;3.78;;;22.60;99.90;;;;;;6272007;22;20012;-77
2023/08/18 01:43:12;;;;;;;6.97;3.90;;;22.60;99.90;;;;;;6252097;22;20093;-78
2023/08/18 01:46:02;;;;;;;8.27;4.25;;;22.60;99.90;;;;;;6272512;22;20019;-78
2023/08/18 01:48:48;;;;;;;6.22;3.92;;;22.60;99.90;;;;;;6271580;22;20045;-77
2023/08/18 01:51:34;;;;;;;6.30;4.43;;;22.60;99.90;;;;;;6271950;22;20417;-78
2023/08/18 01:54:21;;;;;;;5.63;4.38;;;22.60;99.90;;;;;;6269209;22;20008;-75
2023/08/18 01:57:08;;;;;;;8.13;4.88;;;22.60;99.90;;;;;;6270916;22;20012;-77
2023/08/18 01:59:54;;;;;;;6.82;4.35;;;22.50;99.90;;;;;;6271038;22;20008;-77
2023/08/18 02:02:40;;;;;;;8.50;5.10;;;22.50;99.90;;;;;;6272443;22;20020;-79
2023/08/18 02:05:26;;;;;;;6.53;4.57;;;22.50;99.90;;;;;;6271404;22;20019;-79
2023/08/18 02:08:12;;;;;;;7.10;4.07;;;22.50;99.90;;;;;;6271765;22;20007;-80
2023/08/18 02:11:02;;;;;;;7.50;5.18;;;22.50;99.90;;;;;;6269635;22;20094;-79
2023/08/18 02:13:48;;;;;;;7.93;4.63;;;22.50;99.90;;;;;;6271091;22;20023;-79
2023/08/18 02:16:34;;;;;;;7.22;4.45;;;22.50;99.90;;;;;;6271755;22;20086;-79
2023/08/18 02:19:20;;;;;;;6.72;4.63;;;22.40;99.90;;;;;;6269163;22;20010;-79
2023/08/18 02:22:07;;;;;;;9.88;4.97;;;22.40;99.90;;;;;;6271848;22;20011;-80
2023/08/18 02:24:53;;;;;;;7.35;4.18;;;22.40;99.90;;;;;;6272525;22;20049;-80
2023/08/18 02:27:39;;;;;;;6.38;4.47;;;22.40;99.90;;;;;;6272212;22;20046;-80
2023/08/18 02:30:25;;;;;;;6.03;4.68;;;22.40;99.90;;;;;;6270405;22;20046;-79
2023/08/18 02:33:11;;;;;;;6.43;4.72;;;22.40;99.90;;;;;;6270900;22;20361;-79
2023/08/18 02:35:59;;;;;;;6.03;4.50;;;22.40;99.90;;;;;;6271342;22;20114;-79
2023/08/18 02:38:44;;;;;;;6.80;4.95;;;22.40;99.90;;;;;;6271588;22;20087;-78
2023/08/18 02:41:30;;;;;;;6.63;4.75;;;22.40;99.90;;;;;;6271849;22;20050;-80
2023/08/18 02:44:17;;;;;;;6.93;5.22;;;22.30;99.90;;;;;;6271975;22;20008;-80
2023/08/18 02:47:03;;;;;;;5.85;3.95;;;22.30;99.90;;;;;;6271662;22;20018;-83
2023/08/18 02:49:51;;;;;;;8.75;5.35;;;22.30;99.90;;;;;;6269751;22;20043;-83
2023/08/18 02:52:37;;;;;;;6.38;4.35;;;22.30;99.90;;;;;;6271658;22;20008;-83
2023/08/18 02:55:22;;;;;;;6.35;4.63;;;22.30;99.90;;;;;;6271989;22;20008;-84
2023/08/18 02:58:08;;;;;;;5.85;4.55;;;22.30;99.90;;;;;;6271074;22;20011;-83
2023/08/18 03:00:55;;;;;;;11.98;5.03;;;22.30;99.90;;;;;;6247499;22;20515;-84
2023/08/18 03:03:41;;;;;;;7.68;5.63;;;22.30;99.90;;;;;;6249872;22;20012;-83
2023/08/18 03:06:27;;;;;;;7.68;4.90;;;22.30;99.90;;;;;;6248278;22;20073;-83
2023/08/18 03:09:13;;;;;;;8.50;5.00;;;22.30;99.90;;;;;;6249960;22;20012;-82
2023/08/18 03:11:59;;;;;;;8.73;5.22;;;22.30;99.90;;;;;;6287071;22;20010;-82
2023/08/18 03:14:45;;;;;;;5.90;4.40;;;22.30;99.90;;;;;;6271172;22;20027;-79
2023/08/18 03:17:31;;;;;;;6.80;4.82;;;22.20;99.90;;;;;;6271095;22;20109;-80
2023/08/18 03:20:19;;;;;;;6.32;4.75;;;22.20;99.90;;;;;;6270846;22;20012;-79
2023/08/18 03:23:05;;;;;;;7.10;5.38;;;22.20;99.90;;;;;;6271050;22;20142;-79
2023/08/18 03:25:51;;;;;;;7.40;4.85;;;22.20;99.90;;;;;;6271737;22;20020;-79
2023/08/18 03:28:37;;;;;;;9.65;5.97;;;22.20;99.90;;;;;;6270277;22;20007;-79
2023/08/18 03:31:23;;;;;;;10.07;5.70;;;22.20;99.90;;;;;;6249065;22;20046;-79
2023/08/18 03:34:09;;;;;;;8.23;5.10;;;22.20;99.90;;;;;;6271157;22;20008;-79
2023/08/18 03:36:55;;;;;;;10.18;5.40;;;22.20;99.90;;;;;;6273253;22;20527;-79
2023/08/18 03:39:41;;;;;;;7.63;5.60;;;22.20;99.90;;;;;;6275567;22;20031;-79
2023/08/18 03:42:27;;;;;;;8.02;5.00;;;22.20;99.90;;;;;;6296271;22;20003;-78
2023/08/18 03:45:13;;;;;;;7.50;5.43;;;22.20;99.90;;;;;;6287298;22;20011;-75
2023/08/18 03:47:58;;;;;;;12.88;4.85;;;22.20;99.90;;;;;;6271528;22;20008;-75
2023/08/18 03:50:44;;;;;;;6.80;5.03;;;22.20;99.90;;;;;;6272013;22;20022;-75
2023/08/18 03:53:30;;;;;;;8.38;5.43;;;22.10;99.90;;;;;;6268951;22;20007;-74
2023/08/18 03:56:16;;;;;;;9.25;5.45;;;22.10;99.90;;;;;;6271100;22;20015;-75
2023/08/18 03:59:03;;;;;;;7.35;4.82;;;22.10;99.90;;;;;;6270658;22;20118;-74
2023/08/18 04:01:49;;;;;;;10.13;5.38;;;22.10;99.90;;;;;;6270653;22;20327;-75
2023/08/18 04:04:35;;;;;;;7.85;5.13;;;22.10;99.90;;;;;;6271100;22;20015;-75
2023/08/18 04:07:21;;;;;;;9.38;5.43;;;22.10;99.90;;;;;;6274025;22;20050;-74
2023/08/18 04:10:07;;;;;;;8.25;5.35;;;22.10;99.90;;;;;;6273000;22;20058;-75
2023/08/18 04:12:53;;;;;;;7.25;5.43;;;22.10;99.90;;;;;;6273273;22;20047;-77
2023/08/18 04:15:39;;;;;;;9.95;5.80;;;22.10;99.90;;;;;;6271875;22;20008;-77
2023/08/18 04:18:25;;;;;;;7.88;5.20;;;22.10;99.90;;;;;;6271945;22;20311;-77
2023/08/18 04:21:11;;;;;;;10.32;6.10;;;22.10;99.90;;;;;;6273157;22;20437;-77
2023/08/18 04:23:56;;;;;;;15.70;5.82;;;22.10;99.90;;;;;;6270474;22;20433;-78
2023/08/18 04:26:42;;;;;;;10.38;5.97;;;22.10;99.90;;;;;;6273424;22;20011;-77
2023/08/18 04:29:28;;;;;;;9.68;5.80;;;22.10;99.90;;;;;;6271162;22;20091;-77
2023/08/18 04:32:14;;;;;;;8.43;5.80;;;22.20;99.90;;;;;;6250562;22;20020;-77
2023/08/18 04:35:01;;;;;;;8.48;4.97;;;22.20;99.90;;;;;;6273388;22;20464;-77
2023/08/18 04:37:47;;;;;;;10.18;6.63;;;22.20;99.90;;;;;;6273431;22;20394;-77
2023/08/18 04:40:33;;;;;;;7.97;5.07;;;22.20;99.90;;;;;;6271910;22;20374;-77
2023/08/18 04:43:19;;;;;;;12.95;6.50;;;22.20;99.90;;;;;;6272049;22;20489;-77
2023/08/18 04:46:05;;;;;;;9.27;5.35;;;22.30;99.90;;;;;;6272995;22;20025;-77
2023/08/18 04:48:51;;;;;;;8.27;5.78;;;22.30;99.90;;;;;;6272519;22;20349;-77
2023/08/18 04:51:37;;;;;;;9.27;6.18;;;22.40;99.90;;;;;;6271242;22;20481;-77
2023/08/18 04:54:23;;;;;;;11.20;6.15;;;22.40;99.90;;;;;;6272780;22;20015;-73
2023/08/18 04:57:10;;;;;;;7.50;5.22;;;22.40;99.90;;;;;;6271750;22;20054;-73
2023/08/18 04:59:55;;;;;;;7.95;5.68;;;22.50;99.90;;;;;;6271307;22;20012;-74
2023/08/18 05:02:42;;;;;;;9.07;5.90;;;22.50;99.90;;;;;;6272808;22;20011;-74
2023/08/18 05:05:28;;;;;;;6.10;4.85;;;22.50;99.90;;;;;;6271841;22;20457;-73
2023/08/18 05:08:13;;;;;;;10.13;6.22;;;22.60;99.90;;;;;;6272591;22;20449;-73
2023/08/18 05:11:07;;;;;;;7.65;5.30;;;22.60;99.90;;;;;;6272457;22;20033;-73
2023/08/18 05:13:53;;;;;;;10.43;5.85;;;22.70;99.90;;;;;;6271514;22;20031;-77
2023/08/18 05:16:39;;;;;;;7.38;4.90;;;22.70;99.90;;;;;;6272623;22;20052;-77
2023/08/18 05:19:25;;;;;;;7.97;5.72;;;22.70;99.90;;;;;;6271440;22;20081;-76
2023/08/18 05:22:11;;;;;;;9.07;5.10;;;22.70;99.90;;;;;;6269507;22;20008;-77
2023/08/18 05:24:57;;;;;;;8.65;5.50;;;22.70;99.90;;;;;;6271287;22;20074;-77
2023/08/18 05:27:43;;;;;;;9.48;5.00;;;22.70;99.90;;;;;;6272667;22;20039;-78
2023/08/18 05:30:28;;;;;;;10.63;6.18;;;22.70;99.90;;;;;;6270914;22;20118;-79
2023/08/18 05:33:15;;;;;;;7.53;5.55;;;22.70;99.90;;;;;;6272413;22;20057;-74
2023/08/18 05:36:03;;;;;;;6.82;5.20;;;22.70;99.90;;;;;;6272583;22;20025;-75
2023/08/18 05:38:49;;;;;;;8.45;5.10;;;22.70;99.90;;;;;;6272350;22;20008;-74
2023/08/18 05:41:35;;;;;;;9.27;5.43;;;22.70;99.90;;;;;;6271697;22;20080;-75
2023/08/18 05:44:21;;;;;;;9.65;5.95;;;22.70;99.90;;;;;;6272071;22;20007;-78
2023/08/18 05:47:07;;;;;;;10.63;6.50;;;22.70;99.90;;;;;;6249220;22;20018;-79
2023/08/18 05:49:52;;;;;;;7.28;6.03;;;22.70;99.90;;;;;;6271442;22;20019;-78
2023/08/18 05:52:38;;;;;;;16.73;6.90;;;22.80;99.90;;;;;;6272819;22;20094;-79
2023/08/18 05:55:25;;;;;;;10.13;5.82;;;22.80;99.90;;;;;;6272197;22;20038;-79
2023/08/18 05:58:11;;;;;;;6.75;5.20;;;22.90;99.90;;;;;;6271860;22;20086;-79
2023/08/18 06:00:57;;;;;;;7.97;5.68;;;22.90;99.90;;;;;;6249653;22;20098;-78
2023/08/18 06:03:43;;;;;;;8.25;6.07;;;22.90;99.90;;;;;;6271996;22;20021;-78
2023/08/18 06:06:29;;;;;;;8.07;5.30;;;23.00;99.90;;;;;;6272636;22;20016;-79
2023/08/18 06:09:15;;;;;;;8.18;5.68;;;23.00;99.90;;;;;;6271703;22;20042;-75
2023/08/18 06:12:01;;;;;;;10.15;6.65;;;23.10;99.90;;;;;;6272809;22;20018;-76
2023/08/18 06:14:47;;;;;;;9.65;6.05;;;23.10;99.90;;;;;;6271865;22;20338;-75
2023/08/18 06:17:33;;;;;;;8.15;5.72;;;23.10;99.90;;;;;;6275433;22;20004;-74
2023/08/18 06:20:19;;;;;;;7.25;5.35;;;23.20;99.90;;;;;;6280394;22;20007;-74
2023/08/18 06:23:05;;;;;;;7.78;5.03;;;23.20;99.90;;;;;;6273463;22;20192;-76
2023/08/18 06:25:51;;;;;;;9.15;5.80;;;23.20;99.90;;;;;;6270559;22;20344;-76
2023/08/18 06:28:37;;;;;;;9.77;5.95;;;23.30;99.90;;;;;;6272145;22;20007;-79
2023/08/18 06:31:23;;;;;;;9.10;5.75;;;23.30;99.90;;;;;;6247943;22;20404;-77
2023/08/18 06:34:08;;;;;;;8.43;5.82;;;23.40;99.90;;;;;;6269528;22;20012;-69
2023/08/18 06:36:54;;;;;;;6.85;4.82;;;23.40;99.90;;;;;;6272375;22;20018;-72
2023/08/18 06:39:40;;;;;;;9.43;5.60;;;23.40;99.90;;;;;;6268136;22;20401;-72
2023/08/18 06:42:26;;;;;;;6.28;5.07;;;23.40;99.90;;;;;;6270355;22;20020;-71
2023/08/18 06:45:12;;;;;;;7.63;5.70;;;23.50;99.90;;;;;;6270092;22;20103;-71
2023/08/18 06:47:58;;;;;;;8.30;5.07;;;23.50;99.90;;;;;;6270835;22;20073;-70
2023/08/18 06:50:44;;;;;;;8.35;6.05;;;23.60;99.90;;;;;;6247551;22;20012;-71
2023/08/18 06:53:30;;;;;;;8.25;5.85;;;23.60;99.90;;;;;;6270284;22;20012;-71
2023/08/18 06:56:17;;;;;;;11.60;5.72;;;23.60;99.90;;;;;;6270159;22;20015;-69
2023/08/18 06:59:03;;;;;;;10.60;6.13;;;23.70;99.90;;;;;;6269213;22;20011;-68
2023/08/18 07:01:49;;;;;;;7.07;5.53;;;23.70;99.90;;;;;;6269364;22;20023;-68
2023/08/18 07:04:35;;;;;;;7.50;5.00;;;23.80;99.90;;;;;;6269890;22;20030;-67
2023/08/18 07:07:21;;;;;;;9.38;5.57;;;23.80;99.90;;;;;;6268319;22;20004;-67
2023/08/18 07:10:09;;;;;;;9.02;5.18;;;23.90;99.90;;;;;;6270406;22;20725;-68
2023/08/18 07:12:55;;;;;;;8.82;5.30;;;24.00;99.90;;;;;;6270671;22;20020;-69
2023/08/18 07:15:41;;;;;;;7.13;5.15;;;24.00;99.90;;;;;;6270209;22;20098;-67
2023/08/18 07:18:26;;;;;;;6.70;4.82;;;24.10;99.90;;;;;;6269533;22;20063;-67
2023/08/18 07:21:12;;;;;;;7.03;4.90;;;24.10;99.90;;;;;;6271103;22;20011;-67
2023/08/18 07:23:59;;;;;;;6.53;4.55;;;24.20;99.90;;;;;;6245881;22;20012;-67
2023/08/18 07:26:45;;;;;;;7.72;4.55;;;24.30;99.90;;;;;;6270961;22;20464;-68
2023/08/18 07:29:33;;;;;;;6.50;4.82;;;24.30;99.90;;;;;;6270313;22;20008;-68
2023/08/18 07:32:19;;;;;;;10.60;4.88;;;24.40;99.90;;;;;;6270080;22;20012;-68
2023/08/18 07:35:08;;;;;;;7.57;4.45;;;24.50;99.90;;;;;;6269633;22;20035;-68
2023/08/18 07:37:55;;;;;;;6.47;5.03;;;24.50;99.90;;;;;;6269099;22;20067;-67
2023/08/18 07:40:41;;;;;;;5.80;4.78;;;24.60;99.90;;;;;;6273005;22;20838;-68
2023/08/18 07:43:27;;;;;;;9.32;5.75;;;24.60;99.90;;;;;;6271069;22;20016;-68
2023/08/18 07:46:13;;;;;;;7.60;4.90;;;24.60;99.90;;;;;;6251950;22;20816;-68
2023/08/18 07:48:59;;;;;;;5.65;4.13;;;24.60;99.90;;;;;;6271875;22;20425;-68
2023/08/18 07:51:45;;;;;;;11.02;5.45;;;24.70;99.90;;;;;;6273181;22;20020;-68
2023/08/18 07:54:31;;;;;;;5.45;3.90;;;24.70;99.90;;;;;;6271013;22;20448;-68
2023/08/18 07:57:17;;;;;;;6.60;4.68;;;24.70;99.90;;;;;;6272910;22;20357;-68
2023/08/18 08:00:14;;;;;;;7.63;4.82;;;24.80;99.90;;;;;;6272514;22;20034;-68
2023/08/18 08:03:00;;;;;;;5.75;4.50;;;24.80;99.90;;;;;;6272082;22;20011;-68
2023/08/18 08:05:46;;;;;;;7.22;5.47;;;24.90;99.90;;;;;;6272193;22;20085;-68
2023/08/18 08:08:32;;;;;;;6.63;4.93;;;25.00;99.90;;;;;;6273027;22;20015;-68
2023/08/18 08:11:18;;;;;;;6.80;4.00;;;25.10;99.90;;;;;;6273663;22;20012;-68
2023/08/18 08:14:04;;;;;;;9.05;4.85;;;25.10;99.90;;;;;;6270090;22;20055;-68
2023/08/18 08:16:49;;;;;;;8.43;4.80;;;25.20;99.90;;;;;;6271582;22;20008;-68
2023/08/18 08:19:35;;;;;;;7.38;4.30;;;25.20;99.90;;;;;;6272128;22;20008;-68
2023/08/18 08:22:22;;;;;;;7.28;4.65;;;25.30;99.90;;;;;;6273879;22;20012;-68
2023/08/18 08:25:10;;;;;;;7.10;4.45;;;25.30;99.90;;;;;;6271887;22;20020;-69
2023/08/18 08:27:56;;;;;;;4.55;3.83;;;25.30;99.90;;;;;;6271890;22;20385;-68
2023/08/18 08:30:44;;;;;;;5.25;3.83;;;25.40;99.90;;;;;;6272677;22;20004;-68
2023/08/18 08:33:31;;;;;;;4.45;3.92;;;25.40;99.90;;;;;;6272527;22;20044;-68
2023/08/18 08:36:17;;;;;;;6.85;4.47;;;25.50;99.90;;;;;;6272973;22;20616;-68
2023/08/18 08:39:04;;;;;;;4.82;3.67;;;25.60;99.90;;;;;;6270799;22;20445;-71
2023/08/18 08:41:49;;;;;;;6.53;3.92;;;25.60;99.90;;;;;;6248583;22;20073;-70
2023/08/18 08:44:36;;;;;;;5.22;3.90;;;25.70;99.90;;;;;;6272124;22;20029;-70
2023/08/18 08:47:22;;;;;;;6.40;4.22;;;25.80;99.70;;;;;;6252328;22;20008;-70
2023/08/18 08:50:11;;;;;;;6.65;3.90;;;25.80;99.40;;;;;;6272164;22;20069;-70
2023/08/18 08:53:00;;;;;;;5.40;3.78;;;25.90;99.20;;;;;;6272748;22;20439;-70
2023/08/18 08:55:47;;;;;;;5.95;4.03;;;25.90;99.10;;;;;;6273426;22;20019;-70
2023/08/18 08:58:34;;;;;;;6.40;3.78;;;26.00;98.80;;;;;;6276776;22;20003;-70
2023/08/18 09:01:22;;;;;;;4.35;3.47;;;26.00;98.10;;;;;;6274752;22;20043;-70
2023/08/18 09:04:09;;;;;;;5.00;3.70;;;26.10;98.10;;;;;;6271946;22;20008;-70
2023/08/18 09:06:55;;;;;;;4.82;3.33;;;26.20;97.90;;;;;;6271973;22;20061;-70
2023/08/18 09:09:42;;;;;;;4.80;3.42;;;26.30;97.60;;;;;;6272867;22;20031;-70
2023/08/18 09:12:28;;;;;;;5.60;3.13;;;26.40;97.40;;;;;;6272013;22;20016;-70
2023/08/18 09:15:15;;;;;;;4.85;3.70;;;26.50;97.40;;;;;;6271733;22;20012;-70
2023/08/18 09:18:03;;;;;;;7.80;3.35;;;26.50;97.20;;;;;;6271170;22;20083;-70
2023/08/18 09:20:53;;;;;;;3.42;2.42;;;26.60;96.80;;;;;;6271864;22;20426;-70
2023/08/18 09:23:39;;;;;;;11.88;3.45;;;26.70;96.60;;;;;;6272140;22;20008;-68
2023/08/18 09:26:26;;;;;;;5.03;3.38;;;26.80;96.60;;;;;;6268943;22;20375;-67
2023/08/18 09:29:12;;;;;;;5.45;3.58;;;26.90;96.30;;;;;;6271392;22;20008;-69
2023/08/18 09:31:58;;;;;;;4.68;3.30;;;26.90;96.40;;;;;;6270121;22;20010;-68
2023/08/18 09:34:44;;;;;;;10.18;4.40;;;27.00;96.10;;;;;;6271568;22;20095;-71
2023/08/18 09:37:31;;;;;;;5.88;3.22;;;27.10;96.00;;;;;;6272280;22;20012;-70
2023/08/18 09:40:17;;;;;;;4.60;2.90;;;27.10;95.90;;;;;;6270659;22;20015;-68
2023/08/18 09:43:03;;;;;;;5.38;3.42;;;27.20;95.60;;;;;;6271846;22;20015;-69
2023/08/18 09:45:52;;;;;;;3.70;2.95;;;27.30;95.80;;;;;;6270009;22;20065;-69
2023/08/18 09:48:39;;;;;;;4.97;3.10;;;27.30;95.60;;;;;;6271970;22;20012;-70
2023/08/18 09:51:25;;;;;;;4.10;3.25;;;27.40;95.70;;;;;;6272429;22;20004;-67
2023/08/18 09:54:13;;;;;;;4.88;3.63;;;27.50;95.60;;;;;;6271956;22;20018;-68
2023/08/18 09:57:09;;;;;;;4.88;3.30;;;27.50;95.30;;;;;;6272260;22;20018;-69
2023/08/18 09:59:58;;;;;;;5.28;3.80;;;27.60;94.80;;;;;;6271028;22;20015;-69
2023/08/18 10:02:45;;;;;;;3.50;3.15;;;27.70;94.50;;;;;;6270434;22;20047;-69
2023/08/18 10:05:32;;;;;;;6.45;3.15;;;27.70;94.40;;;;;;6244695;22;20457;-70
2023/08/18 10:08:18;;;;;;;4.45;3.08;;;27.80;94.10;;;;;;6268972;22;20077;-70
2023/08/18 10:11:05;;;;;;;5.07;3.03;;;27.90;94.00;;;;;;6271390;22;20357;-69
2023/08/18 10:13:51;;;;;;;4.50;3.15;;;28.00;93.90;;;;;;6271063;22;20042;-70
2023/08/18 10:16:38;;;;;;;6.63;3.65;;;28.00;93.70;;;;;;6272002;22;20007;-68
2023/08/18 10:19:52;;;;;;;4.57;3.03;;;28.10;93.60;;;;;;6271888;22;20007;-68
2023/08/18 10:22:41;;;;;;;5.63;3.00;;;28.20;93.40;;;;;;6272190;22;20086;-68
2023/08/18 10:25:29;;;;;;;6.78;3.25;;;28.30;93.20;;;;;;6270455;22;20078;-68
2023/08/18 10:28:19;;;;;;;5.95;3.50;;;28.30;93.10;;;;;;6247598;22;20016;-68
2023/08/18 10:31:11;;;;;;;5.20;3.40;;;28.40;92.80;;;;;;6248764;22;20016;-68
2023/08/18 10:34:01;;;;;;;6.15;3.58;;;28.50;92.70;;;;;;6270465;22;20464;-68
2023/08/18 10:36:47;;;;;;;3.92;3.20;;;28.60;92.60;;;;;;6271571;22;20107;-68
2023/08/18 10:39:40;;;;;;;4.80;3.88;;;28.60;92.20;;;;;;6268498;22;20453;-68
2023/08/18 10:42:27;;;;;;;3.50;3.13;;;28.70;92.40;;;;;;6268539;22;20023;-68
2023/08/18 10:45:29;;;;;;;4.38;3.45;;;28.80;92.50;;;;;;6271092;22;20111;-69
2023/08/18 10:48:15;;;;;;;7.10;3.95;;;28.80;91.90;;;;;;6270693;22;20384;-68
2023/08/18 10:51:01;;;;;;;5.43;3.20;;;28.90;92.20;;;;;;6270957;22;20008;-69
2023/08/18 10:53:49;;;;;;;5.60;3.15;;;28.90;91.70;;;;;;6270686;22;20078;-69
2023/08/18 10:56:35;;;;;;;5.65;3.15;;;28.90;91.70;;;;;;6246731;22;20011;-68
2023/08/18 10:59:21;;;;;;;4.75;3.50;;;28.90;91.60;;;;;;6270312;22;20441;-68
2023/08/18 11:02:07;;;;;;;4.80;3.35;;;28.90;91.30;;;;;;6271010;22;20098;-68
2023/08/18 11:04:54;;;;;;;5.65;3.05;;;28.90;91.00;;;;;;6270981;22;20027;-69
2023/08/18 11:07:40;;;;;;;5.13;3.45;;;29.00;91.00;;;;;;6271046;22;20008;-68
2023/08/18 11:10:26;;;;;;;7.88;3.40;;;28.90;90.90;;;;;;6271373;22;20016;-68
2023/08/18 11:13:26;;;;;;;4.18;3.00;;;29.00;91.00;;;;;;6271049;22;20020;-68
2023/08/18 11:16:12;;;;;;;4.43;3.33;;;29.00;91.10;;;;;;6273838;22;20019;-68
2023/08/18 11:19:00;;;;;;;5.13;3.33;;;29.00;91.00;;;;;;6273697;22;20059;-68
2023/08/18 11:21:46;;;;;;;6.82;3.50;;;29.00;91.20;;;;;;6271588;22;20012;-68
2023/08/18 11:24:34;;;;;;;8.82;3.58;;;29.10;91.00;;;;;;6272760;22;20103;-69
2023/08/18 11:27:20;;;;;;;4.63;3.28;;;29.10;90.90;;;;;;6271149;22;20153;-69
2023/08/18 11:30:11;;;;;;;4.80;3.00;;;29.20;90.90;;;;;;6272800;22;20425;-69
2023/08/18 11:32:57;;;;;;;4.78;3.40;;;29.20;91.10;;;;;;6272234;22;20333;-70
2023/08/18 11:35:43;;;;;;;4.38;3.60;;;29.30;90.90;;;;;;6250222;22;20007;-70
2023/08/18 11:38:30;;;;;;;5.50;3.33;;;29.40;91.00;;;;;;6267133;22;20107;-70
2023/08/18 11:41:16;;;;;;;7.03;4.55;;;29.40;91.50;;;;;;6275794;22;20042;-70
2023/08/18 11:44:02;;;;;;;5.05;3.63;;;29.40;91.00;;;;;;6276185;22;20018;-73
2023/08/18 11:46:49;;;;;;;5.78;3.83;;;29.40;91.00;;;;;;6273393;22;20481;-74
2023/08/18 11:49:36;;;;;;;8.73;3.35;;;29.50;90.80;;;;;;6271177;22;20011;-73
2023/08/18 11:52:22;;;;;;;4.22;3.30;;;29.50;91.00;;;;;;6250075;22;20012;-73
2023/08/18 11:55:08;;;;;;;7.95;3.75;;;29.50;91.00;;;;;;6272981;22;20011;-73
2023/08/18 11:57:55;;;;;;;4.38;3.72;;;29.60;90.60;;;;;;6269762;22;20028;-73
2023/08/18 12:00:44;;;;;;;5.32;3.70;;;29.60;90.70;;;;;;6272806;22;20011;-74
2023/08/18 12:03:29;;;;;;;4.75;3.50;;;29.60;90.80;;;;;;6249942;22;20018;-73
2023/08/18 12:06:23;;;;;;;7.63;3.78;;;29.60;90.90;;;;;;6270361;22;20096;-73
2023/08/18 12:09:12;;;;;;;5.15;3.70;;;29.60;90.80;;;;;;6270848;22;20008;-73
2023/08/18 12:11:58;;;;;;;4.47;3.85;;;29.70;90.90;;;;;;6273259;22;20016;-73
2023/08/18 12:14:44;;;;;;;4.75;3.50;;;29.70;90.60;;;;;;6272554;22;20023;-74
2023/08/18 12:17:30;;;;;;;5.85;3.38;;;29.80;90.60;;;;;;6245226;22;20369;-73
2023/08/18 12:20:19;;;;;;;6.10;3.85;;;29.80;90.70;;;;;;6271967;22;20019;-74
2023/08/18 12:23:05;;;;;;;5.68;3.95;;;29.80;90.80;;;;;;6271131;22;20393;-74
2023/08/18 12:25:51;;;;;;;6.72;4.45;;;29.90;90.90;;;;;;6268541;22;20055;-74
2023/08/18 12:28:37;;;;;;;4.22;3.58;;;29.90;90.50;;;;;;6271585;22;20012;-74
2023/08/18 12:31:24;;;;;;;5.85;4.05;;;29.90;90.80;;;;;;6272270;22;20011;-74
2023/08/18 12:34:10;;;;;;;5.20;3.65;;;30.00;90.60;;;;;;6269825;22;20014;-74
2023/08/18 12:36:58;;;;;;;4.07;3.47;;;30.00;90.30;;;;;;6271332;22;20023;-74
2023/08/18 12:39:46;;;;;;;5.93;4.28;;;30.10;90.30;;;;;;6269894;22;20004;-74
2023/08/18 12:42:33;;;;;;;6.43;4.70;;;30.10;90.30;;;;;;6271710;22;20018;-74
2023/08/18 12:45:20;;;;;;;6.63;4.25;;;30.10;90.00;;;;;;6270778;22;20016;-74
2023/08/18 12:48:07;;;;;;;5.85;3.95;;;30.10;90.20;;;;;;6271901;22;20057;-74
2023/08/18 12:50:53;;;;;;;5.43;3.75;;;30.10;90.40;;;;;;6269022;22;20014;-75
2023/08/18 12:53:38;;;;;;;5.53;3.97;;;30.20;90.50;;;;;;6246755;22;20071;-73
2023/08/18 12:56:24;;;;;;;7.78;4.13;;;30.10;90.10;;;;;;6271173;22;20463;-74
2023/08/18 12:59:10;;;;;;;5.05;3.85;;;30.10;90.30;;;;;;6272573;22;20011;-73
2023/08/18 13:01:57;;;;;;;6.47;4.63;;;30.10;90.20;;;;;;6272472;22;20399;-73
2023/08/18 13:04:44;;;;;;;5.13;3.58;;;30.20;90.40;;;;;;6271499;22;20820;-74
2023/08/18 13:07:30;;;;;;;4.93;3.95;;;30.20;90.40;;;;;;6272394;22;20082;-73
2023/08/18 13:10:16;;;;;;;5.50;3.88;;;30.10;90.40;;;;;;6271313;22;20019;-74
2023/08/18 13:13:01;;;;;;;5.50;3.88;;;30.10;90.50;;;;;;6271249;22;20396;-74
2023/08/18 13:15:47;;;;;;;7.55;4.47;;;30.10;90.40;;;;;;6272929;22;20477;-74
2023/08/18 13:18:33;;;;;;;4.47;3.58;;;30.20;90.50;;;;;;6271468;22;20018;-73
2023/08/18 13:21:19;;;;;;;6.88;4.10;;;30.20;90.30;;;;;;6271079;22;20023;-72
2023/08/18 13:24:05;;;;;;;5.05;3.63;;;30.20;90.30;;;;;;6270857;22;20019;-73
2023/08/18 13:26:51;;;;;;;6.05;4.13;;;30.30;90.00;;;;;;6272083;22;20051;-73
2023/08/18 13:29:37;;;;;;;5.15;4.00;;;30.30;90.00;;;;;;6270650;22;20087;-74
2023/08/18 13:32:23;;;;;;;8.55;4.03;;;30.50;90.10;;;;;;6272742;22;20004;-73
2023/08/18 13:35:10;;;;;;;7.03;3.67;;;30.50;89.80;;;;;;6271613;22;20069;-73
2023/08/18 13:37:55;;;;;;;4.90;3.83;;;30.60;89.50;;;;;;6270911;22;20438;-73
2023/08/18 13:40:41;;;;;;;5.38;3.78;;;30.60;89.70;;;;;;6269439;22;20350;-73
2023/08/18 13:43:30;;;;;;;5.35;4.30;;;30.80;89.40;;;;;;6271550;22;20090;-73
2023/08/18 13:46:16;;;;;;;10.18;4.75;;;30.90;88.90;;;;;;6269608;22;20054;-75
2023/08/18 13:49:02;;;;;;;11.13;4.10;;;31.00;88.80;;;;;;6271215;22;20010;-74
2023/08/18 13:51:48;;;;;;;5.82;3.42;;;31.10;88.20;;;;;;6272184;22;20069;-74
2023/08/18 13:54:34;;;;;;;7.28;4.38;;;31.10;87.80;;;;;;6271466;22;20450;-73
2023/08/18 13:57:21;;;;;;;4.85;3.83;;;31.00;87.30;;;;;;6271801;22;20011;-74
2023/08/18 14:00:09;;;;;;;6.28;4.28;;;31.00;87.00;;;;;;6247571;22;20753;-73
2023/08/18 14:02:55;;;;;;;5.53;3.60;;;31.00;87.40;;;;;;6247877;22;20063;-74
2023/08/18 14:05:42;;;;;;;6.00;4.05;;;31.00;87.20;;;;;;6271014;22;20047;-74
2023/08/18 14:08:28;;;;;;;5.25;4.25;;;31.00;86.80;;;;;;6271435;22;20008;-74
2023/08/18 14:11:14;;;;;;;4.93;3.63;;;31.00;86.60;;;;;;6269151;22;20137;-74
2023/08/18 14:14:00;;;;;;;6.55;3.75;;;31.00;86.10;;;;;;6271826;22;20458;-74
2023/08/18 14:16:46;;;;;;;5.43;3.50;;;31.00;86.10;;;;;;6270684;22;20018;-74
2023/08/18 14:19:32;;;;;;;5.30;4.13;;;30.90;85.80;;;;;;6270305;22;20098;-74
2023/08/18 14:22:18;;;;;;;5.55;3.88;;;30.90;85.80;;;;;;6268387;22;20459;-73
2023/08/18 14:25:04;;;;;;;5.50;4.15;;;30.80;86.40;;;;;;6275872;22;20015;-71